sensor_id;sensor_type;location;lat;lon;timestamp;temperature;humidity
43185;DHT22;28803;52.308;19.096;2023-07-13T00:01:56;17.00;99.90
43185;DHT22;28803;52.308;19.096;2023-07-13T00:04:25;17.30;99.90
43185;DHT22;28803;52.308;19.096;2023-07-13T00:06:53;17.00;99.90
43185;DHT22;28803;52.308;19.096;2023-07-13T00:09:21;17.00;99.90
43185;DHT22;28803;52.308;19.096;2023-07-13T00:11:52;17.40;99.90
43185;DHT22;28803;52.308;19.096;2023-07-13T00:14:20;17.00;99.90
43185;DHT22;28803;52.308;19.096;2023-07-13T00:16:47;17.00;99.90
43185;DHT22;28803;52.308;19.096;2023-07-13T00:19:15;17.00;99.90
43185;DHT22;28803;52.308;19.096;2023-07-13T00:21:42;17.00;99.90
43185;DHT22;28803;52.308;19.096;2023-07-13T00:24:12;17.00;99.90
43185;DHT22;28803;52.308;19.096;2023-07-13T00:26:50;17.00;99.90
43185;DHT22;28803;52.308;19.096;2023-07-13T00:29:17;17.00;99.90
43185;DHT22;28803;52.308;19.096;2023-07-13T00:31:45;17.00;99.90
43185;DHT22;28803;52.308;19.096;2023-07-13T00:34:13;17.00;99.90
43185;DHT22;28803;52.308;19.096;2023-07-13T00:36:40;17.00;99.90
43185;DHT22;28803;52.308;19.096;2023-07-13T00:39:08;17.00;99.90
43185;DHT22;28803;52.308;19.096;2023-07-13T00:41:35;17.00;99.90
43185;DHT22;28803;52.308;19.096;2023-07-13T00:44:04;17.00;99.90
43185;DHT22;28803;52.308;19.096;2023-07-13T00:46:33;16.90;99.90
43185;DHT22;28803;52.308;19.096;2023-07-13T00:49:03;16.90;99.90
43185;DHT22;28803;52.308;19.096;2023-07-13T00:51:40;16.90;99.90
43185;DHT22;28803;52.308;19.096;2023-07-13T00:54:13;17.00;99.90
43185;DHT22;28803;52.308;19.096;2023-07-13T00:56:43;16.80;99.90
43185;DHT22;28803;52.308;19.096;2023-07-13T00:59:13;16.90;99.90
43185;DHT22;28803;52.308;19.096;2023-07-13T01:01:41;16.80;99.90
43185;DHT22;28803;52.308;19.096;2023-07-13T01:04:10;16.80;99.90
43185;DHT22;28803;52.308;19.096;2023-07-13T01:06:37;16.80;99.90
43185;DHT22;28803;52.308;19.096;2023-07-13T01:09:08;16.80;99.90
43185;DHT22;28803;52.308;19.096;2023-07-13T01:11:35;16.80;99.90
43185;DHT22;28803;52.308;19.096;2023-07-13T01:14:03;16.80;99.90
43185;DHT22;28803;52.308;19.096;2023-07-13T01:16:33;16.80;99.90
43185;DHT22;28803;52.308;19.096;2023-07-13T01:19:01;16.80;99.90
43185;DHT22;28803;52.308;19.096;2023-07-13T01:21:33;16.80;99.90
43185;DHT22;28803;52.308;19.096;2023-07-13T01:24:00;16.70;99.90
43185;DHT22;28803;52.308;19.096;2023-07-13T01:26:29;16.80;99.90
43185;DHT22;28803;52.308;19.096;2023-07-13T01:28:56;16.70;99.90
43185;DHT22;28803;52.308;19.096;2023-07-13T01:31:24;16.70;99.90
43185;DHT22;28803;52.308;19.096;2023-07-13T01:33:51;16.60;99.90
43185;DHT22;28803;52.308;19.096;2023-07-13T01:36:18;16.60;99.90
43185;DHT22;28803;52.308;19.096;2023-07-13T01:38:48;16.60;99.90
43185;DHT22;28803;52.308;19.096;2023-07-13T01:41:15;16.60;99.90
43185;DHT22;28803;52.308;19.096;2023-07-13T01:43:42;16.50;99.90
43185;DHT22;28803;52.308;19.096;2023-07-13T01:46:10;16.40;99.90
43185;DHT22;28803;52.308;19.096;2023-07-13T01:48:50;16.40;99.90
43185;DHT22;28803;52.308;19.096;2023-07-13T01:51:18;16.30;99.90
43185;DHT22;28803;52.308;19.096;2023-07-13T01:53:46;16.30;99.90
43185;DHT22;28803;52.308;19.096;2023-07-13T01:56:13;16.30;99.90
43185;DHT22;28803;52.308;19.096;2023-07-13T01:58:40;16.30;99.90
43185;DHT22;28803;52.308;19.096;2023-07-13T02:01:08;16.30;99.90
43185;DHT22;28803;52.308;19.096;2023-07-13T02:03:35;16.30;99.90
43185;DHT22;28803;52.308;19.096;2023-07-13T02:06:03;16.30;99.90
43185;DHT22;28803;52.308;19.096;2023-07-13T02:08:32;16.30;99.90
43185;DHT22;28803;52.308;19.096;2023-07-13T02:11:02;16.30;99.90
43185;DHT22;28803;52.308;19.096;2023-07-13T02:13:29;16.30;99.90
43185;DHT22;28803;52.308;19.096;2023-07-13T02:15:57;16.20;99.90
43185;DHT22;28803;52.308;19.096;2023-07-13T02:18:24;16.20;99.90
43185;DHT22;28803;52.308;19.096;2023-07-13T02:20:51;16.20;99.90
43185;DHT22;28803;52.308;19.096;2023-07-13T02:23:19;16.20;99.90
43185;DHT22;28803;52.308;19.096;2023-07-13T02:25:47;16.20;99.90
43185;DHT22;28803;52.308;19.096;2023-07-13T02:28:14;16.20;99.90
43185;DHT22;28803;52.308;19.096;2023-07-13T02:30:41;16.30;99.90
43185;DHT22;28803;52.308;19.096;2023-07-13T02:33:08;16.30;99.90
43185;DHT22;28803;52.308;19.096;2023-07-13T02:35:36;16.40;99.90
43185;DHT22;28803;52.308;19.096;2023-07-13T02:38:03;16.40;99.90
43185;DHT22;28803;52.308;19.096;2023-07-13T02:40:30;16.30;99.90
43185;DHT22;28803;52.308;19.096;2023-07-13T02:43:00;16.30;99.90
43185;DHT22;28803;52.308;19.096;2023-07-13T02:45:27;16.30;99.90
43185;DHT22;28803;52.308;19.096;2023-07-13T02:47:55;16.30;99.90
43185;DHT22;28803;52.308;19.096;2023-07-13T02:50:22;16.20;99.90
43185;DHT22;28803;52.308;19.096;2023-07-13T02:52:49;16.20;99.90
43185;DHT22;28803;52.308;19.096;2023-07-13T02:55:17;16.20;99.90
43185;DHT22;28803;52.308;19.096;2023-07-13T02:57:44;16.20;99.90
43185;DHT22;28803;52.308;19.096;2023-07-13T03:00:12;16.10;99.90
43185;DHT22;28803;52.308;19.096;2023-07-13T03:02:39;16.10;99.90
43185;DHT22;28803;52.308;19.096;2023-07-13T03:05:07;16.00;99.90
43185;DHT22;28803;52.308;19.096;2023-07-13T03:07:34;16.00;99.90
43185;DHT22;28803;52.308;19.096;2023-07-13T03:10:02;16.00;99.90
43185;DHT22;28803;52.308;19.096;2023-07-13T03:12:29;16.10;99.90
43185;DHT22;28803;52.308;19.096;2023-07-13T03:14:57;16.10;99.90
43185;DHT22;28803;52.308;19.096;2023-07-13T03:17:24;16.10;99.90
43185;DHT22;28803;52.308;19.096;2023-07-13T03:19:52;16.10;99.90
43185;DHT22;28803;52.308;19.096;2023-07-13T03:22:19;16.00;99.90
43185;DHT22;28803;52.308;19.096;2023-07-13T03:24:47;15.90;99.90
43185;DHT22;28803;52.308;19.096;2023-07-13T03:27:16;16.00;99.90
43185;DHT22;28803;52.308;19.096;2023-07-13T03:29:44;16.00;99.90
43185;DHT22;28803;52.308;19.096;2023-07-13T03:32:12;16.10;99.90
43185;DHT22;28803;52.308;19.096;2023-07-13T03:34:39;16.10;99.90
43185;DHT22;28803;52.308;19.096;2023-07-13T03:37:06;16.20;99.90
43185;DHT22;28803;52.308;19.096;2023-07-13T03:39:34;16.30;99.90
43185;DHT22;28803;52.308;19.096;2023-07-13T03:42:01;16.40;99.90
43185;DHT22;28803;52.308;19.096;2023-07-13T03:44:28;16.70;99.90
43185;DHT22;28803;52.308;19.096;2023-07-13T03:46:55;16.80;99.90
43185;DHT22;28803;52.308;19.096;2023-07-13T03:49:23;17.00;99.90
43185;DHT22;28803;52.308;19.096;2023-07-13T03:51:51;17.20;99.90
43185;DHT22;28803;52.308;19.096;2023-07-13T03:54:20;17.40;99.90
43185;DHT22;28803;52.308;19.096;2023-07-13T03:56:47;17.50;99.90
43185;DHT22;28803;52.308;19.096;2023-07-13T03:59:15;17.60;99.90
43185;DHT22;28803;52.308;19.096;2023-07-13T04:01:43;17.70;99.90
43185;DHT22;28803;52.308;19.096;2023-07-13T04:04:11;17.80;99.90
43185;DHT22;28803;52.308;19.096;2023-07-13T04:06:39;17.90;99.90
43185;DHT22;28803;52.308;19.096;2023-07-13T04:09:06;17.80;99.90
43185;DHT22;28803;52.308;19.096;2023-07-13T04:11:34;17.80;99.90
43185;DHT22;28803;52.308;19.096;2023-07-13T04:14:03;17.90;99.90
43185;DHT22;28803;52.308;19.096;2023-07-13T04:16:30;17.90;99.90
43185;DHT22;28803;52.308;19.096;2023-07-13T04:18:58;17.90;99.90
43185;DHT22;28803;52.308;19.096;2023-07-13T04:21:30;18.00;99.90
43185;DHT22;28803;52.308;19.096;2023-07-13T04:23:58;18.10;99.90
43185;DHT22;28803;52.308;19.096;2023-07-13T04:26:25;18.20;99.90
43185;DHT22;28803;52.308;19.096;2023-07-13T04:28:53;18.20;99.90
43185;DHT22;28803;52.308;19.096;2023-07-13T04:31:21;18.30;99.90
43185;DHT22;28803;52.308;19.096;2023-07-13T04:33:49;18.50;99.90
43185;DHT22;28803;52.308;19.096;2023-07-13T04:36:17;18.80;99.90
43185;DHT22;28803;52.308;19.096;2023-07-13T04:38:45;19.00;99.90
43185;DHT22;28803;52.308;19.096;2023-07-13T04:41:13;19.30;99.90
43185;DHT22;28803;52.308;19.096;2023-07-13T04:43:40;19.40;99.90
43185;DHT22;28803;52.308;19.096;2023-07-13T04:46:11;19.50;99.90
43185;DHT22;28803;52.308;19.096;2023-07-13T04:48:39;19.60;99.90
43185;DHT22;28803;52.308;19.096;2023-07-13T04:51:07;19.50;99.90
43185;DHT22;28803;52.308;19.096;2023-07-13T04:53:35;19.60;99.90
43185;DHT22;28803;52.308;19.096;2023-07-13T04:56:03;19.90;99.90
43185;DHT22;28803;52.308;19.096;2023-07-13T04:58:31;20.00;99.90
43185;DHT22;28803;52.308;19.096;2023-07-13T05:01:03;20.10;99.90
43185;DHT22;28803;52.308;19.096;2023-07-13T05:03:31;20.20;99.90
43185;DHT22;28803;52.308;19.096;2023-07-13T05:06:02;20.10;99.90
43185;DHT22;28803;52.308;19.096;2023-07-13T05:08:29;20.10;99.90
43185;DHT22;28803;52.308;19.096;2023-07-13T05:10:59;20.10;99.90
43185;DHT22;28803;52.308;19.096;2023-07-13T05:13:28;20.10;99.90
43185;DHT22;28803;52.308;19.096;2023-07-13T05:15:59;20.10;99.90
43185;DHT22;28803;52.308;19.096;2023-07-13T05:18:27;20.20;99.90
43185;DHT22;28803;52.308;19.096;2023-07-13T05:20:59;20.20;99.90
43185;DHT22;28803;52.308;19.096;2023-07-13T05:23:29;20.40;99.90
43185;DHT22;28803;52.308;19.096;2023-07-13T05:25:56;20.50;99.90
43185;DHT22;28803;52.308;19.096;2023-07-13T05:28:25;20.60;99.90
43185;DHT22;28803;52.308;19.096;2023-07-13T05:30:53;20.60;99.90
43185;DHT22;28803;52.308;19.096;2023-07-13T05:33:22;20.70;99.90
43185;DHT22;28803;52.308;19.096;2023-07-13T05:35:49;20.70;99.90
43185;DHT22;28803;52.308;19.096;2023-07-13T05:38:17;20.70;99.90
43185;DHT22;28803;52.308;19.096;2023-07-13T05:40:45;20.60;99.90
43185;DHT22;28803;52.308;19.096;2023-07-13T05:43:13;20.50;99.90
43185;DHT22;28803;52.308;19.096;2023-07-13T05:45:41;20.50;99.90
43185;DHT22;28803;52.308;19.096;2023-07-13T05:48:08;20.50;99.90
43185;DHT22;28803;52.308;19.096;2023-07-13T05:50:36;20.50;99.90
43185;DHT22;28803;52.308;19.096;2023-07-13T05:53:03;20.50;99.90
43185;DHT22;28803;52.308;19.096;2023-07-13T05:55:30;20.50;99.90
43185;DHT22;28803;52.308;19.096;2023-07-13T05:57:59;20.50;99.90
43185;DHT22;28803;52.308;19.096;2023-07-13T06:00:27;20.60;99.90
43185;DHT22;28803;52.308;19.096;2023-07-13T06:02:56;20.70;99.90
43185;DHT22;28803;52.308;19.096;2023-07-13T06:05:23;20.80;99.90
43185;DHT22;28803;52.308;19.096;2023-07-13T06:07:51;21.00;99.90
43185;DHT22;28803;52.308;19.096;2023-07-13T06:10:18;21.20;99.90
43185;DHT22;28803;52.308;19.096;2023-07-13T06:15:13;21.50;99.90
43185;DHT22;28803;52.308;19.096;2023-07-13T06:17:44;21.60;99.90
43185;DHT22;28803;52.308;19.096;2023-07-13T06:20:12;21.80;99.90
43185;DHT22;28803;52.308;19.096;2023-07-13T06:22:39;22.00;99.90
43185;DHT22;28803;52.308;19.096;2023-07-13T06:25:07;22.20;99.90
43185;DHT22;28803;52.308;19.096;2023-07-13T06:27:35;22.40;98.60
43185;DHT22;28803;52.308;19.096;2023-07-13T06:30:02;22.50;91.10
43185;DHT22;28803;52.308;19.096;2023-07-13T06:32:30;22.70;78.30
43185;DHT22;28803;52.308;19.096;2023-07-13T06:34:57;22.70;57.00
43185;DHT22;28803;52.308;19.096;2023-07-13T06:37:24;22.80;42.80
43185;DHT22;28803;52.308;19.096;2023-07-13T06:39:51;22.80;40.80
43185;DHT22;28803;52.308;19.096;2023-07-13T06:42:19;22.80;42.70
43185;DHT22;28803;52.308;19.096;2023-07-13T06:44:46;23.00;46.40
43185;DHT22;28803;52.308;19.096;2023-07-13T06:47:14;23.00;27.30
43185;DHT22;28803;52.308;19.096;2023-07-13T06:49:41;23.10;1.00
43185;DHT22;28803;52.308;19.096;2023-07-13T06:52:08;23.00;4.30
43185;DHT22;28803;52.308;19.096;2023-07-13T06:54:37;22.90;5.30
43185;DHT22;28803;52.308;19.096;2023-07-13T06:57:04;22.70;8.10
43185;DHT22;28803;52.308;19.096;2023-07-13T06:59:32;22.40;12.00
43185;DHT22;28803;52.308;19.096;2023-07-13T07:01:59;22.10;21.20
43185;DHT22;28803;52.308;19.096;2023-07-13T07:04:27;22.00;48.80
43185;DHT22;28803;52.308;19.096;2023-07-13T07:06:54;21.80;68.60
43185;DHT22;28803;52.308;19.096;2023-07-13T07:09:25;21.80;87.30
43185;DHT22;28803;52.308;19.096;2023-07-13T07:11:52;22.00;92.20
43185;DHT22;28803;52.308;19.096;2023-07-13T07:14:31;22.20;92.40
43185;DHT22;28803;52.308;19.096;2023-07-13T07:16:58;22.60;76.40
43185;DHT22;28803;52.308;19.096;2023-07-13T07:19:29;22.90;38.50
43185;DHT22;28803;52.308;19.096;2023-07-13T07:21:56;23.20;6.60
43185;DHT22;28803;52.308;19.096;2023-07-13T07:24:24;23.40;1.00
43185;DHT22;28803;52.308;19.096;2023-07-13T07:26:51;23.50;1.00
43185;DHT22;28803;52.308;19.096;2023-07-13T07:29:22;23.40;1.00
43185;DHT22;28803;52.308;19.096;2023-07-13T07:31:52;23.30;1.00
43185;DHT22;28803;52.308;19.096;2023-07-13T07:34:24;23.20;1.00
43185;DHT22;28803;52.308;19.096;2023-07-13T07:36:51;23.00;1.00
43185;DHT22;28803;52.308;19.096;2023-07-13T07:39:22;22.90;1.00
43185;DHT22;28803;52.308;19.096;2023-07-13T07:41:49;22.90;1.00
43185;DHT22;28803;52.308;19.096;2023-07-13T07:44:19;22.90;1.00
43185;DHT22;28803;52.308;19.096;2023-07-13T07:46:47;22.90;1.00
43185;DHT22;28803;52.308;19.096;2023-07-13T07:49:15;23.00;10.70
43185;DHT22;28803;52.308;19.096;2023-07-13T07:51:42;23.00;5.30
43185;DHT22;28803;52.308;19.096;2023-07-13T07:54:10;23.30;1.00
43185;DHT22;28803;52.308;19.096;2023-07-13T07:56:42;23.60;1.00
43185;DHT22;28803;52.308;19.096;2023-07-13T07:59:29;24.00;1.00
43185;DHT22;28803;52.308;19.096;2023-07-13T08:02:16;24.60;99.90
43185;DHT22;28803;52.308;19.096;2023-07-13T08:05:04;25.00;99.90
43185;DHT22;28803;52.308;19.096;2023-07-13T08:07:34;25.20;99.90
43185;DHT22;28803;52.308;19.096;2023-07-13T08:10:02;25.20;99.90
43185;DHT22;28803;52.308;19.096;2023-07-13T08:12:30;25.20;47.40
43185;DHT22;28803;52.308;19.096;2023-07-13T08:15:03;25.10;1.00
43185;DHT22;28803;52.308;19.096;2023-07-13T08:17:31;25.00;99.90
43185;DHT22;28803;52.308;19.096;2023-07-13T08:19:58;24.70;99.90
43185;DHT22;28803;52.308;19.096;2023-07-13T08:22:27;24.40;99.90
43185;DHT22;28803;52.308;19.096;2023-07-13T08:24:55;24.00;99.90
43185;DHT22;28803;52.308;19.096;2023-07-13T08:27:24;23.80;1.00
43185;DHT22;28803;52.308;19.096;2023-07-13T08:29:52;23.80;1.00
43185;DHT22;28803;52.308;19.096;2023-07-13T08:32:21;23.70;1.00
43185;DHT22;28803;52.308;19.096;2023-07-13T08:34:49;23.50;1.00
43185;DHT22;28803;52.308;19.096;2023-07-13T08:37:17;23.30;1.00
43185;DHT22;28803;52.308;19.096;2023-07-13T08:39:45;23.00;1.00
43185;DHT22;28803;52.308;19.096;2023-07-13T08:42:31;23.00;1.00
43185;DHT22;28803;52.308;19.096;2023-07-13T08:47:38;23.10;1.00
43185;DHT22;28803;52.308;19.096;2023-07-13T08:50:12;23.20;1.00
43185;DHT22;28803;52.308;19.096;2023-07-13T08:52:41;23.30;1.00
43185;DHT22;28803;52.308;19.096;2023-07-13T08:55:17;23.30;1.00
43185;DHT22;28803;52.308;19.096;2023-07-13T08:57:53;23.40;1.00
43185;DHT22;28803;52.308;19.096;2023-07-13T09:00:22;23.50;1.00
43185;DHT22;28803;52.308;19.096;2023-07-13T09:02:57;23.60;1.00
43185;DHT22;28803;52.308;19.096;2023-07-13T09:05:28;23.80;1.00
43185;DHT22;28803;52.308;19.096;2023-07-13T09:10:42;24.00;1.00
43185;DHT22;28803;52.308;19.096;2023-07-13T09:13:27;23.80;1.00
43185;DHT22;28803;52.308;19.096;2023-07-13T09:15:59;23.40;1.00
43185;DHT22;28803;52.308;19.096;2023-07-13T09:18:33;22.90;1.00
43185;DHT22;28803;52.308;19.096;2023-07-13T09:23:37;22.70;1.00
43185;DHT22;28803;52.308;19.096;2023-07-13T09:26:22;22.80;1.40
43185;DHT22;28803;52.308;19.096;2023-07-13T09:29:06;22.90;1.00
43185;DHT22;28803;52.308;19.096;2023-07-13T09:31:42;23.00;1.00
43185;DHT22;28803;52.308;19.096;2023-07-13T09:34:13;23.10;1.00
43185;DHT22;28803;52.308;19.096;2023-07-13T09:36:41;23.30;1.00
43185;DHT22;28803;52.308;19.096;2023-07-13T09:41:48;23.40;1.00
43185;DHT22;28803;52.308;19.096;2023-07-13T09:44:27;23.60;1.00
43185;DHT22;28803;52.308;19.096;2023-07-13T09:46:55;23.80;1.00
43185;DHT22;28803;52.308;19.096;2023-07-13T09:49:36;23.90;99.90
43185;DHT22;28803;52.308;19.096;2023-07-13T09:52:09;24.00;99.90
43185;DHT22;28803;52.308;19.096;2023-07-13T09:54:37;24.10;99.90
43185;DHT22;28803;52.308;19.096;2023-07-13T09:57:14;24.30;99.30
43185;DHT22;28803;52.308;19.096;2023-07-13T09:59:47;24.50;1.00
43185;DHT22;28803;52.308;19.096;2023-07-13T10:02:28;24.70;66.70
43185;DHT22;28803;52.308;19.096;2023-07-13T10:05:03;24.70;99.90
43185;DHT22;28803;52.308;19.096;2023-07-13T10:07:32;24.60;99.90
43185;DHT22;28803;52.308;19.096;2023-07-13T10:10:01;24.90;99.90
43185;DHT22;28803;52.308;19.096;2023-07-13T10:12:36;25.20;99.90
43185;DHT22;28803;52.308;19.096;2023-07-13T10:15:06;25.30;99.90
43185;DHT22;28803;52.308;19.096;2023-07-13T10:17:54;25.10;9.90
43185;DHT22;28803;52.308;19.096;2023-07-13T10:20:23;24.90;1.00
43185;DHT22;28803;52.308;19.096;2023-07-13T10:23:02;24.80;99.90
43185;DHT22;28803;52.308;19.096;2023-07-13T10:25:33;24.90;99.90
43185;DHT22;28803;52.308;19.096;2023-07-13T10:28:27;25.50;99.90
43185;DHT22;28803;52.308;19.096;2023-07-13T10:30:56;26.80;1.00
43185;DHT22;28803;52.308;19.096;2023-07-13T10:33:26;28.30;6.40
43185;DHT22;28803;52.308;19.096;2023-07-13T10:36:30;29.40;99.90
43185;DHT22;28803;52.308;19.096;2023-07-13T10:39:01;30.40;99.90
43185;DHT22;28803;52.308;19.096;2023-07-13T10:41:30;30.50;99.90
43185;DHT22;28803;52.308;19.096;2023-07-13T10:43:59;30.20;99.90
43185;DHT22;28803;52.308;19.096;2023-07-13T10:46:27;29.20;99.90
43185;DHT22;28803;52.308;19.096;2023-07-13T10:49:02;29.20;99.90
43185;DHT22;28803;52.308;19.096;2023-07-13T10:51:32;28.60;99.90
43185;DHT22;28803;52.308;19.096;2023-07-13T10:54:36;27.90;99.90
43185;DHT22;28803;52.308;19.096;2023-07-13T10:57:19;27.10;99.90
43185;DHT22;28803;52.308;19.096;2023-07-13T11:00:14;26.50;1.00
43185;DHT22;28803;52.308;19.096;2023-07-13T11:02:43;25.90;1.00
43185;DHT22;28803;52.308;19.096;2023-07-13T11:08:24;25.10;4.80
43185;DHT22;28803;52.308;19.096;2023-07-13T11:10:59;25.00;99.90
43185;DHT22;28803;52.308;19.096;2023-07-13T11:18:52;24.90;97.70
43185;DHT22;28803;52.308;19.096;2023-07-13T11:21:21;25.10;72.80
43185;DHT22;28803;52.308;19.096;2023-07-13T11:26:51;25.60;1.00
43185;DHT22;28803;52.308;19.096;2023-07-13T11:31:54;26.10;99.90
43185;DHT22;28803;52.308;19.096;2023-07-13T11:34:27;26.60;99.90
43185;DHT22;28803;52.308;19.096;2023-07-13T11:36:57;26.90;99.90
43185;DHT22;28803;52.308;19.096;2023-07-13T11:39:33;27.30;34.40
43185;DHT22;28803;52.308;19.096;2023-07-13T11:42:05;27.60;1.00
43185;DHT22;28803;52.308;19.096;2023-07-13T11:44:34;28.00;1.00
43185;DHT22;28803;52.308;19.096;2023-07-13T11:47:10;28.30;99.90
43185;DHT22;28803;52.308;19.096;2023-07-13T11:49:48;28.60;99.90
43185;DHT22;28803;52.308;19.096;2023-07-13T11:52:21;28.60;99.90
43185;DHT22;28803;52.308;19.096;2023-07-13T11:54:54;28.50;99.90
43185;DHT22;28803;52.308;19.096;2023-07-13T11:59:55;28.00;99.90
43185;DHT22;28803;52.308;19.096;2023-07-13T12:02:34;27.80;99.90
43185;DHT22;28803;52.308;19.096;2023-07-13T12:05:04;27.60;99.90
43185;DHT22;28803;52.308;19.096;2023-07-13T12:07:33;27.40;99.90
43185;DHT22;28803;52.308;19.096;2023-07-13T12:12:36;27.00;99.90
43185;DHT22;28803;52.308;19.096;2023-07-13T12:15:07;26.80;99.90
43185;DHT22;28803;52.308;19.096;2023-07-13T12:17:35;26.70;1.00
43185;DHT22;28803;52.308;19.096;2023-07-13T12:20:22;26.60;1.00
43185;DHT22;28803;52.308;19.096;2023-07-13T12:22:52;26.50;65.70
43185;DHT22;28803;52.308;19.096;2023-07-13T12:25:20;26.50;2.20
43185;DHT22;28803;52.308;19.096;2023-07-13T12:27:50;26.70;1.00
43185;DHT22;28803;52.308;19.096;2023-07-13T12:30:30;27.00;1.00
43185;DHT22;28803;52.308;19.096;2023-07-13T12:33:10;27.40;99.90
43185;DHT22;28803;52.308;19.096;2023-07-13T12:35:56;27.40;99.90
43185;DHT22;28803;52.308;19.096;2023-07-13T12:38:27;27.40;99.90
43185;DHT22;28803;52.308;19.096;2023-07-13T12:40:54;27.20;99.90
43185;DHT22;28803;52.308;19.096;2023-07-13T12:43:23;26.90;99.90
43185;DHT22;28803;52.308;19.096;2023-07-13T12:46:20;26.60;99.90
43185;DHT22;28803;52.308;19.096;2023-07-13T12:48:52;26.30;1.00
43185;DHT22;28803;52.308;19.096;2023-07-13T12:52:00;26.10;1.00
43185;DHT22;28803;52.308;19.096;2023-07-13T12:54:29;25.90;60.10
43185;DHT22;28803;52.308;19.096;2023-07-13T12:56:58;25.80;99.90
43185;DHT22;28803;52.308;19.096;2023-07-13T12:59:31;25.80;99.90
43185;DHT22;28803;52.308;19.096;2023-07-13T13:02:00;25.70;99.90
43185;DHT22;28803;52.308;19.096;2023-07-13T13:04:28;25.60;99.90
43185;DHT22;28803;52.308;19.096;2023-07-13T13:07:03;25.60;99.90
43185;DHT22;28803;52.308;19.096;2023-07-13T13:09:33;25.70;99.90
43185;DHT22;28803;52.308;19.096;2023-07-13T13:12:00;25.90;99.90
43185;DHT22;28803;52.308;19.096;2023-07-13T13:14:28;26.10;99.90
43185;DHT22;28803;52.308;19.096;2023-07-13T13:16:55;26.10;61.70
43185;DHT22;28803;52.308;19.096;2023-07-13T13:19:27;26.10;1.00
43185;DHT22;28803;52.308;19.096;2023-07-13T13:21:56;26.10;72.40
43185;DHT22;28803;52.308;19.096;2023-07-13T13:24:27;26.20;1.00
43185;DHT22;28803;52.308;19.096;2023-07-13T13:26:55;26.30;1.00
43185;DHT22;28803;52.308;19.096;2023-07-13T13:29:38;26.30;1.00
43185;DHT22;28803;52.308;19.096;2023-07-13T13:32:11;26.40;1.00
43185;DHT22;28803;52.308;19.096;2023-07-13T13:34:40;26.60;99.90
43185;DHT22;28803;52.308;19.096;2023-07-13T13:37:22;26.80;99.90
43185;DHT22;28803;52.308;19.096;2023-07-13T13:39:50;27.10;99.90
43185;DHT22;28803;52.308;19.096;2023-07-13T13:42:34;27.10;99.90
43185;DHT22;28803;52.308;19.096;2023-07-13T13:45:02;27.10;99.90
43185;DHT22;28803;52.308;19.096;2023-07-13T13:47:32;27.20;99.90
43185;DHT22;28803;52.308;19.096;2023-07-13T13:50:10;27.30;99.90
43185;DHT22;28803;52.308;19.096;2023-07-13T13:52:38;27.70;99.90
43185;DHT22;28803;52.308;19.096;2023-07-13T13:55:15;28.20;99.90
43185;DHT22;28803;52.308;19.096;2023-07-13T13:57:43;28.40;99.90
43185;DHT22;28803;52.308;19.096;2023-07-13T14:00:11;28.40;99.90
43185;DHT22;28803;52.308;19.096;2023-07-13T14:02:44;28.60;99.90
43185;DHT22;28803;52.308;19.096;2023-07-13T14:05:21;28.90;99.90
43185;DHT22;28803;52.308;19.096;2023-07-13T14:07:48;29.30;99.90
43185;DHT22;28803;52.308;19.096;2023-07-13T14:10:20;29.80;91.90
43185;DHT22;28803;52.308;19.096;2023-07-13T14:12:51;30.00;64.40
43185;DHT22;28803;52.308;19.096;2023-07-13T14:15:25;29.70;40.50
43185;DHT22;28803;52.308;19.096;2023-07-13T14:17:54;29.50;36.80
43185;DHT22;28803;52.308;19.096;2023-07-13T14:20:23;29.10;19.60
43185;DHT22;28803;52.308;19.096;2023-07-13T14:22:52;28.90;19.60
43185;DHT22;28803;52.308;19.096;2023-07-13T14:25:20;28.90;12.20
43185;DHT22;28803;52.308;19.096;2023-07-13T14:27:51;29.40;4.60
43185;DHT22;28803;52.308;19.096;2023-07-13T14:30:21;30.70;1.00
43185;DHT22;28803;52.308;19.096;2023-07-13T14:32:49;32.40;1.00
43185;DHT22;28803;52.308;19.096;2023-07-13T14:35:21;34.00;1.00
43185;DHT22;28803;52.308;19.096;2023-07-13T14:37:51;34.90;1.00
43185;DHT22;28803;52.308;19.096;2023-07-13T14:40:30;35.20;1.00
43185;DHT22;28803;52.308;19.096;2023-07-13T14:42:58;35.30;1.00
43185;DHT22;28803;52.308;19.096;2023-07-13T14:45:26;36.00;1.00
43185;DHT22;28803;52.308;19.096;2023-07-13T14:47:53;36.00;1.00
43185;DHT22;28803;52.308;19.096;2023-07-13T14:50:27;36.40;1.00
43185;DHT22;28803;52.308;19.096;2023-07-13T14:52:55;36.40;1.00
43185;DHT22;28803;52.308;19.096;2023-07-13T14:55:22;36.90;1.00
43185;DHT22;28803;52.308;19.096;2023-07-13T14:57:53;37.70;1.00
43185;DHT22;28803;52.308;19.096;2023-07-13T15:00:22;38.00;1.00
43185;DHT22;28803;52.308;19.096;2023-07-13T15:02:53;38.10;1.00
43185;DHT22;28803;52.308;19.096;2023-07-13T15:05:25;36.70;1.00
43185;DHT22;28803;52.308;19.096;2023-07-13T15:07:53;34.70;1.00
43185;DHT22;28803;52.308;19.096;2023-07-13T15:10:27;32.70;1.00
43185;DHT22;28803;52.308;19.096;2023-07-13T15:13:17;31.40;1.00
43185;DHT22;28803;52.308;19.096;2023-07-13T15:15:50;30.10;1.00
43185;DHT22;28803;52.308;19.096;2023-07-13T15:18:21;29.10;1.00
43185;DHT22;28803;52.308;19.096;2023-07-13T15:20:50;28.30;1.00
43185;DHT22;28803;52.308;19.096;2023-07-13T15:23:19;27.70;1.00
43185;DHT22;28803;52.308;19.096;2023-07-13T15:25:46;27.10;1.00
43185;DHT22;28803;52.308;19.096;2023-07-13T15:28:13;26.60;1.00
43185;DHT22;28803;52.308;19.096;2023-07-13T15:30:48;26.20;1.00
43185;DHT22;28803;52.308;19.096;2023-07-13T15:33:27;25.80;1.00
43185;DHT22;28803;52.308;19.096;2023-07-13T15:35:56;25.30;1.00
43185;DHT22;28803;52.308;19.096;2023-07-13T15:38:29;25.00;17.30
43185;DHT22;28803;52.308;19.096;2023-07-13T15:40:57;24.70;99.90
43185;DHT22;28803;52.308;19.096;2023-07-13T15:43:26;24.60;99.90
43185;DHT22;28803;52.308;19.096;2023-07-13T15:45:54;23.90;99.90
43185;DHT22;28803;52.308;19.096;2023-07-13T15:48:40;22.40;99.90
43185;DHT22;28803;52.308;19.096;2023-07-13T15:51:29;20.80;1.00
43185;DHT22;28803;52.308;19.096;2023-07-13T15:58:04;18.20;1.00
43185;DHT22;28803;52.308;19.096;2023-07-13T16:00:47;17.90;6.40
43185;DHT22;28803;52.308;19.096;2023-07-13T16:03:20;17.70;58.20
43185;DHT22;28803;52.308;19.096;2023-07-13T16:05:49;17.40;89.80
43185;DHT22;28803;52.308;19.096;2023-07-13T16:08:25;17.20;99.90
43185;DHT22;28803;52.308;19.096;2023-07-13T16:10:54;17.10;99.90
43185;DHT22;28803;52.308;19.096;2023-07-13T16:13:21;17.10;99.90
43185;DHT22;28803;52.308;19.096;2023-07-13T16:15:53;17.20;99.90
43185;DHT22;28803;52.308;19.096;2023-07-13T16:18:24;17.20;99.90